• Join FlightAware (Why Join?)
  • Login
  • US Flag 
07:27PM EDT


 

Airport Tracker/Info


-or-


 

Live Flight TrackerFlight Track Log ✈ ACA831 ✈ 29-Jun-2013 ✈ CYUL - CYYZ

Flight Track Log - Related Links

Times and Time Zones

All times are in EDT time to prevent confusion due to time zone crossing. See the ACA831 flight status page for this flight to view local times or setup timezone preferences in your user account.

Time Position Orientation Groundspeed Altitude Reporting Facility
EDT Latitude Longitude Course Direction KTS MPH feet Rate Location/Type
04:05PM 45.4590 -73.7490 34° Northeast  Level FlightAware
04:08PM 45.4590 -73.7510 270° West 9 10  Level FlightAware
04:09PM 45.4590 -73.7520 270° West 8 9 60 Level FlightAware
04:09PM 45.4600 -73.7500 55° Northeast 10 12 60 Level FlightAware
04:12PM 45.4360 -74.0674 257° West  Level FlightAware Approximate
04:12PM 45.4620 -73.7480 257° West 11 13  Level FlightAware
04:12PM 45.4640 -73.7480 360° North 8 9 60 Level FlightAware
04:13PM 45.4650 -73.7470 35° Northeast 12 14 60 Level FlightAware
04:13PM 45.4650 -73.7450 90° East 12 14 60 Level FlightAware
04:14PM 45.4650 -73.7420 90° East 11 13 60 Level FlightAware
04:14PM 45.4650 -73.7390 90° East 14 16 60 Level FlightAware
04:16PM 45.4630 -73.7330 257° West 9 10 60 Level FlightAware
04:17PM 45.4337 -74.0811 257° West  Level FlightAware Approximate
04:17PM 45.4640 -73.7310 55° Northeast 13 15  Level FlightAware
04:18PM 45.4660 -73.7280 46° Northeast 13 15 120 Level FlightAware
04:18PM 45.4670 -73.7260 55° Northeast 14 16 180 Level FlightAware
04:19PM 45.4690 -73.7230 46° Northeast 12 14 180 Level FlightAware
04:20PM 45.4720 -73.7190 43° Northeast 18 21 240 Level FlightAware
04:22PM 45.4730 -73.7130 77° East 11 13 360 Level FlightAware
04:22PM 45.4700 -73.7180 229° Southwest 98 113 1,080 Level FlightAware
04:22PM 45.4580 -73.7330 221° Southwest 162 186 900 3,000 Climbing FlightAware
04:23PM 45.4360 -73.7600 221° Southwest 172 198 3,000 3,120 Climbing FlightAware
04:23PM 45.4270 -73.7710 221° Southwest 172 198 3,900 2,940 Climbing FlightAware
04:24PM 45.4000 -73.8050 221° Southwest 217 250 5,700 3,180 Climbing FlightAware
04:24PM 45.3940 -73.8180 237° Southwest 227 261 6,200 3,780 Climbing FlightAware
04:25PM 45.3900 -73.9080 266° West 271 312 9,700 3,360 Climbing FlightAware
04:26PM 45.3960 -74.0520 273° West 339 390 13,400 3,480 Climbing FlightAware
04:27PM 45.3990 -74.1360 273° West 340 391 16,300 3,300 Climbing FlightAware
04:28PM 45.4040 -74.2380 274° West 367 422 18,600 3,060 Climbing FlightAware
04:29PM 45.4090 -74.3840 273° West 391 450 21,500 2,700 Climbing FlightAware
04:31PM 45.3650 -74.6950 259° West 433 498 26,600 2,340 Climbing FlightAware
04:32PM 45.3333 -74.9000 259° West 440 506 28,900 1,080 Climbing Montreal Center
04:37PM 45.1660 -75.8330 259° West 458 527 34,000 780 Climbing FlightAware
04:38PM 45.1440 -75.9490 255° West 458 527 34,000  Level FlightAware
04:39PM 45.1260 -76.0450 255° West 458 527 34,000  Level FlightAware
04:39PM 45.0990 -76.2010 256° West 464 534 34,000  Level FlightAware
04:41PM 45.0360 -76.4760 252° West 464 534 34,000  Level FlightAware
04:44PM 44.8410 -76.8610 235° Southwest 474 545 34,000  Level FlightAware
04:45PM 44.7500 -77.0833 235° Southwest 470 541 34,000  Level Montreal Center
04:46PM 44.6833 -77.2333 238° Southwest 470 541 34,000  Level Montreal Center
04:47PM 44.6167 -77.4000 241° Southwest 470 541 34,000 -600 Level Montreal Center
04:52PM 44.2830 -78.2250 241° Southwest 456 525 30,100 -840 Descending FlightAware
04:53PM 44.2350 -78.3380 239° Southwest 447 514 28,700 -3,180 Descending FlightAware
04:54PM 44.1900 -78.4430 239° Southwest 428 493 25,600 -2,760 Descending FlightAware
04:57PM 43.9760 -78.9370 239° Southwest 371 427 17,500 -1,920 Descending FlightAware
04:58PM 43.9250 -79.0470 237° Southwest 309 356 17,200 -840 Descending FlightAware
04:59PM 43.8910 -79.1200 237° Southwest 306 352 16,100 -1,560 Descending FlightAware
04:59PM 43.8750 -79.1640 243° Southwest 302 348 15,400 -1,740 Descending FlightAware
05:00PM 43.8470 -79.2820 252° West 294 338 13,500 -1,920 Descending FlightAware
05:02PM 43.8190 -79.4040 252° West 277 319 11,100 -1,560 Descending FlightAware
05:02PM 43.8020 -79.4750 252° West 245 282 10,600 -1,200 Descending FlightAware
05:03PM 43.7910 -79.5220 252° West 258 297 9,600 -1,740 Descending FlightAware
05:03PM 43.7800 -79.5690 252° West 258 297 8,900 -1,020 Descending FlightAware
05:04PM 43.7690 -79.6150 252° West 243 280 8,600 -660 Descending FlightAware
05:04PM 43.7600 -79.6510 251° West 232 267 8,300 -1,080 Descending FlightAware
05:05PM 43.7430 -79.7190 251° West 231 266 7,300 -1,140 Descending FlightAware
05:06PM 43.7010 -79.7840 228° Southwest 223 257 6,300 -1,080 Descending FlightAware
05:06PM 43.6900 -79.8000 226° Southwest 223 257 6,000 -1,380 Descending FlightAware
05:07PM 43.6720 -79.8280 228° Southwest 222 255 5,400 -1,200 Descending FlightAware
05:07PM 43.6520 -79.8580 227° Southwest 213 245 4,900 -960 Descending FlightAware
05:07PM 43.6420 -79.8720 225° Southwest 210 242 4,700 -1,080 Descending FlightAware
05:08PM 43.6240 -79.8960 224° Southwest 211 243 4,200 -1,200 Descending FlightAware
05:08PM 43.6110 -79.9010 196° South 215 247 3,900 -1,020 Descending FlightAware
05:08PM 43.5970 -79.8950 163° South 211 243 3,700 -720 Descending FlightAware
05:09PM 43.5760 -79.8690 138° Southeast 193 222 3,400 -540 Descending FlightAware
05:11PM 43.6140 -79.7440 67° East 171 197 2,400 -660 Descending FlightAware
05:12PM 43.6520 -79.6890 44° Northeast 137 158 1,300 -720 Descending FlightAware
05:13PM 43.6690 -79.6630 48° Northeast 135 155 1,100 -300 Descending FlightAware
05:15PM 43.6800 -79.6390 58° Northeast 26 30 -660 Descending FlightAware
05:15PM 43.6780 -79.6360 133° Southeast 26 30  Level FlightAware